sensor_id;sensor_type;location;lat;lon;timestamp;P1;durP1;ratioP1;P2;durP2;ratioP2
58950;SDS011;44730;53.158;6.398;2023-04-03T00:01:06;1.67;;;1.02;;
58950;SDS011;44730;53.158;6.398;2023-04-03T00:03:32;1.23;;;0.73;;
58950;SDS011;44730;53.158;6.398;2023-04-03T00:05:57;1.52;;;1.00;;
58950;SDS011;44730;53.158;6.398;2023-04-03T00:08:23;2.53;;;1.33;;
58950;SDS011;44730;53.158;6.398;2023-04-03T00:10:49;1.00;;;0.80;;
58950;SDS011;44730;53.158;6.398;2023-04-03T00:13:15;1.98;;;1.02;;
58950;SDS011;44730;53.158;6.398;2023-04-03T00:15:41;2.45;;;1.35;;
58950;SDS011;44730;53.158;6.398;2023-04-03T00:18:07;1.33;;;0.80;;
58950;SDS011;44730;53.158;6.398;2023-04-03T00:20:34;4.63;;;1.10;;
58950;SDS011;44730;53.158;6.398;2023-04-03T00:23:00;1.55;;;1.00;;
58950;SDS011;44730;53.158;6.398;2023-04-03T00:25:26;3.80;;;0.98;;
58950;SDS011;44730;53.158;6.398;2023-04-03T00:27:52;0.70;;;0.70;;
58950;SDS011;44730;53.158;6.398;2023-04-03T00:30:18;1.65;;;0.90;;
58950;SDS011;44730;53.158;6.398;2023-04-03T00:32:49;1.65;;;1.35;;
58950;SDS011;44730;53.158;6.398;2023-04-03T00:35:16;1.85;;;1.00;;
58950;SDS011;44730;53.158;6.398;2023-04-03T00:37:43;1.33;;;1.00;;
58950;SDS011;44730;53.158;6.398;2023-04-03T00:40:09;2.38;;;1.17;;
58950;SDS011;44730;53.158;6.398;2023-04-03T00:42:37;3.58;;;1.33;;
58950;SDS011;44730;53.158;6.398;2023-04-03T00:47:30;1.42;;;1.00;;
58950;SDS011;44730;53.158;6.398;2023-04-03T00:49:56;2.10;;;1.20;;
58950;SDS011;44730;53.158;6.398;2023-04-03T00:52:24;1.55;;;1.20;;
58950;SDS011;44730;53.158;6.398;2023-04-03T00:54:54;1.92;;;0.90;;
58950;SDS011;44730;53.158;6.398;2023-04-03T00:57:24;1.23;;;1.00;;
58950;SDS011;44730;53.158;6.398;2023-04-03T00:59:55;1.10;;;1.00;;
58950;SDS011;44730;53.158;6.398;2023-04-03T01:02:25;2.35;;;1.40;;
58950;SDS011;44730;53.158;6.398;2023-04-03T01:04:51;1.83;;;1.10;;
58950;SDS011;44730;53.158;6.398;2023-04-03T01:07:18;1.88;;;0.98;;
58950;SDS011;44730;53.158;6.398;2023-04-03T01:09:47;5.18;;;1.27;;
58950;SDS011;44730;53.158;6.398;2023-04-03T01:14:44;1.38;;;1.08;;
58950;SDS011;44730;53.158;6.398;2023-04-03T01:25:28;2.47;;;1.10;;
58950;SDS011;44730;53.158;6.398;2023-04-03T01:27:54;2.33;;;1.30;;
58950;SDS011;44730;53.158;6.398;2023-04-03T01:30:21;2.20;;;1.02;;
58950;SDS011;44730;53.158;6.398;2023-04-03T01:32:53;1.35;;;1.20;;
58950;SDS011;44730;53.158;6.398;2023-04-03T01:35:18;1.90;;;1.17;;
58950;SDS011;44730;53.158;6.398;2023-04-03T01:37:44;2.60;;;1.40;;
58950;SDS011;44730;53.158;6.398;2023-04-03T01:40:10;3.47;;;1.40;;
58950;SDS011;44730;53.158;6.398;2023-04-03T01:42:36;2.83;;;1.00;;
58950;SDS011;44730;53.158;6.398;2023-04-03T01:45:02;1.50;;;1.25;;
58950;SDS011;44730;53.158;6.398;2023-04-03T01:47:28;2.40;;;1.30;;
58950;SDS011;44730;53.158;6.398;2023-04-03T01:49:53;1.92;;;1.30;;
58950;SDS011;44730;53.158;6.398;2023-04-03T01:52:19;2.30;;;1.20;;
58950;SDS011;44730;53.158;6.398;2023-04-03T01:54:45;1.92;;;1.40;;
58950;SDS011;44730;53.158;6.398;2023-04-03T01:57:10;3.17;;;1.35;;
58950;SDS011;44730;53.158;6.398;2023-04-03T01:59:36;3.40;;;1.45;;
58950;SDS011;44730;53.158;6.398;2023-04-03T02:02:02;4.95;;;1.85;;
58950;SDS011;44730;53.158;6.398;2023-04-03T02:04:28;5.72;;;1.67;;
58950;SDS011;44730;53.158;6.398;2023-04-03T02:06:53;1.90;;;1.10;;
58950;SDS011;44730;53.158;6.398;2023-04-03T02:09:19;2.15;;;1.35;;
58950;SDS011;44730;53.158;6.398;2023-04-03T02:11:45;2.58;;;1.30;;
58950;SDS011;44730;53.158;6.398;2023-04-03T02:14:10;2.95;;;1.88;;
58950;SDS011;44730;53.158;6.398;2023-04-03T02:16:36;2.13;;;1.40;;
58950;SDS011;44730;53.158;6.398;2023-04-03T02:19:02;3.83;;;1.73;;
58950;SDS011;44730;53.158;6.398;2023-04-03T02:21:29;1.92;;;1.50;;
58950;SDS011;44730;53.158;6.398;2023-04-03T02:23:55;4.18;;;1.75;;
58950;SDS011;44730;53.158;6.398;2023-04-03T02:26:21;3.53;;;1.52;;
58950;SDS011;44730;53.158;6.398;2023-04-03T02:28:47;2.55;;;1.30;;
58950;SDS011;44730;53.158;6.398;2023-04-03T02:31:13;1.52;;;1.15;;
58950;SDS011;44730;53.158;6.398;2023-04-03T02:33:38;2.55;;;1.38;;
58950;SDS011;44730;53.158;6.398;2023-04-03T02:36:05;1.40;;;1.15;;
58950;SDS011;44730;53.158;6.398;2023-04-03T02:38:32;4.72;;;1.80;;
58950;SDS011;44730;53.158;6.398;2023-04-03T02:41:02;2.50;;;1.23;;
58950;SDS011;44730;53.158;6.398;2023-04-03T02:43:28;4.72;;;1.50;;
58950;SDS011;44730;53.158;6.398;2023-04-03T02:46:00;2.55;;;1.27;;
58950;SDS011;44730;53.158;6.398;2023-04-03T02:48:26;2.78;;;1.90;;
58950;SDS011;44730;53.158;6.398;2023-04-03T02:50:52;3.00;;;1.63;;
58950;SDS011;44730;53.158;6.398;2023-04-03T02:53:18;4.38;;;2.15;;
58950;SDS011;44730;53.158;6.398;2023-04-03T02:55:44;3.42;;;1.50;;
58950;SDS011;44730;53.158;6.398;2023-04-03T02:58:10;3.42;;;1.80;;
58950;SDS011;44730;53.158;6.398;2023-04-03T03:00:36;3.53;;;1.50;;
58950;SDS011;44730;53.158;6.398;2023-04-03T03:03:03;3.30;;;1.90;;
58950;SDS011;44730;53.158;6.398;2023-04-03T03:05:28;3.97;;;1.75;;
58950;SDS011;44730;53.158;6.398;2023-04-03T03:07:54;2.70;;;1.50;;
58950;SDS011;44730;53.158;6.398;2023-04-03T03:10:20;3.75;;;1.70;;
58950;SDS011;44730;53.158;6.398;2023-04-03T03:12:47;2.65;;;1.35;;
58950;SDS011;44730;53.158;6.398;2023-04-03T03:15:12;3.00;;;1.45;;
58950;SDS011;44730;53.158;6.398;2023-04-03T03:17:38;1.60;;;1.23;;
58950;SDS011;44730;53.158;6.398;2023-04-03T03:20:04;2.03;;;1.50;;
58950;SDS011;44730;53.158;6.398;2023-04-03T03:22:33;4.13;;;1.50;;
58950;SDS011;44730;53.158;6.398;2023-04-03T03:25:00;2.22;;;1.52;;
58950;SDS011;44730;53.158;6.398;2023-04-03T03:27:26;3.65;;;1.80;;
58950;SDS011;44730;53.158;6.398;2023-04-03T03:29:52;3.75;;;1.45;;
58950;SDS011;44730;53.158;6.398;2023-04-03T03:32:17;2.42;;;1.63;;
58950;SDS011;44730;53.158;6.398;2023-04-03T03:34:43;4.97;;;2.00;;
58950;SDS011;44730;53.158;6.398;2023-04-03T03:37:09;3.47;;;1.60;;
58950;SDS011;44730;53.158;6.398;2023-04-03T03:39:35;2.50;;;1.67;;
58950;SDS011;44730;53.158;6.398;2023-04-03T03:42:00;2.58;;;1.55;;
58950;SDS011;44730;53.158;6.398;2023-04-03T03:44:26;3.53;;;1.80;;
58950;SDS011;44730;53.158;6.398;2023-04-03T03:46:54;3.88;;;1.77;;
58950;SDS011;44730;53.158;6.398;2023-04-03T03:49:21;4.70;;;2.00;;
58950;SDS011;44730;53.158;6.398;2023-04-03T03:51:47;2.63;;;1.98;;
58950;SDS011;44730;53.158;6.398;2023-04-03T03:54:13;4.18;;;1.55;;
58950;SDS011;44730;53.158;6.398;2023-04-03T03:56:39;2.67;;;1.80;;
58950;SDS011;44730;53.158;6.398;2023-04-03T03:59:05;6.00;;;2.00;;
58950;SDS011;44730;53.158;6.398;2023-04-03T04:01:31;4.18;;;2.00;;
58950;SDS011;44730;53.158;6.398;2023-04-03T04:03:57;6.32;;;1.88;;
58950;SDS011;44730;53.158;6.398;2023-04-03T04:06:22;1.67;;;1.40;;
58950;SDS011;44730;53.158;6.398;2023-04-03T04:08:49;4.68;;;2.47;;
58950;SDS011;44730;53.158;6.398;2023-04-03T04:11:15;4.00;;;2.00;;
58950;SDS011;44730;53.158;6.398;2023-04-03T04:13:41;4.18;;;2.35;;
58950;SDS011;44730;53.158;6.398;2023-04-03T04:16:07;2.83;;;2.00;;
58950;SDS011;44730;53.158;6.398;2023-04-03T04:18:33;3.90;;;2.10;;
58950;SDS011;44730;53.158;6.398;2023-04-03T04:20:59;5.00;;;2.10;;
58950;SDS011;44730;53.158;6.398;2023-04-03T04:23:25;3.58;;;2.05;;
58950;SDS011;44730;53.158;6.398;2023-04-03T04:25:50;5.45;;;2.15;;
58950;SDS011;44730;53.158;6.398;2023-04-03T04:28:16;6.38;;;2.10;;
58950;SDS011;44730;53.158;6.398;2023-04-03T04:30:42;5.35;;;2.20;;
58950;SDS011;44730;53.158;6.398;2023-04-03T04:33:08;2.90;;;1.83;;
58950;SDS011;44730;53.158;6.398;2023-04-03T04:35:35;4.78;;;2.10;;
58950;SDS011;44730;53.158;6.398;2023-04-03T04:38:01;5.25;;;2.20;;
58950;SDS011;44730;53.158;6.398;2023-04-03T04:40:27;4.05;;;2.15;;
58950;SDS011;44730;53.158;6.398;2023-04-03T04:42:54;5.40;;;2.92;;
58950;SDS011;44730;53.158;6.398;2023-04-03T04:45:20;4.07;;;2.35;;
58950;SDS011;44730;53.158;6.398;2023-04-03T04:47:46;5.15;;;2.72;;
58950;SDS011;44730;53.158;6.398;2023-04-03T04:50:12;4.32;;;2.30;;
58950;SDS011;44730;53.158;6.398;2023-04-03T04:52:38;5.75;;;2.53;;
58950;SDS011;44730;53.158;6.398;2023-04-03T04:55:04;4.47;;;2.15;;
58950;SDS011;44730;53.158;6.398;2023-04-03T04:57:30;5.63;;;2.70;;
58950;SDS011;44730;53.158;6.398;2023-04-03T04:59:56;5.03;;;2.63;;
58950;SDS011;44730;53.158;6.398;2023-04-03T05:02:22;5.63;;;2.58;;
58950;SDS011;44730;53.158;6.398;2023-04-03T05:04:47;5.05;;;2.30;;
58950;SDS011;44730;53.158;6.398;2023-04-03T05:07:15;5.68;;;2.40;;
58950;SDS011;44730;53.158;6.398;2023-04-03T05:09:41;4.28;;;2.50;;
58950;SDS011;44730;53.158;6.398;2023-04-03T05:12:07;5.93;;;2.13;;
58950;SDS011;44730;53.158;6.398;2023-04-03T05:14:33;6.07;;;2.90;;
58950;SDS011;44730;53.158;6.398;2023-04-03T05:16:58;6.00;;;2.50;;
58950;SDS011;44730;53.158;6.398;2023-04-03T05:19:24;5.95;;;2.70;;
58950;SDS011;44730;53.158;6.398;2023-04-03T05:21:50;3.92;;;2.38;;
58950;SDS011;44730;53.158;6.398;2023-04-03T05:24:16;4.32;;;2.88;;
58950;SDS011;44730;53.158;6.398;2023-04-03T05:26:51;4.68;;;2.47;;
58950;SDS011;44730;53.158;6.398;2023-04-03T05:29:17;5.93;;;2.30;;
58950;SDS011;44730;53.158;6.398;2023-04-03T05:31:43;6.38;;;2.75;;
58950;SDS011;44730;53.158;6.398;2023-04-03T05:34:08;5.22;;;2.30;;
58950;SDS011;44730;53.158;6.398;2023-04-03T05:36:34;3.88;;;2.70;;
58950;SDS011;44730;53.158;6.398;2023-04-03T05:39:00;2.95;;;2.30;;
58950;SDS011;44730;53.158;6.398;2023-04-03T05:41:26;4.55;;;3.10;;
58950;SDS011;44730;53.158;6.398;2023-04-03T05:43:52;9.00;;;2.70;;
58950;SDS011;44730;53.158;6.398;2023-04-03T05:46:18;8.07;;;2.53;;
58950;SDS011;44730;53.158;6.398;2023-04-03T05:48:45;8.48;;;3.10;;
58950;SDS011;44730;53.158;6.398;2023-04-03T05:51:18;5.95;;;3.00;;
58950;SDS011;44730;53.158;6.398;2023-04-03T05:53:52;6.68;;;2.58;;
58950;SDS011;44730;53.158;6.398;2023-04-03T05:56:24;7.72;;;2.97;;
58950;SDS011;44730;53.158;6.398;2023-04-03T05:58:50;5.03;;;2.90;;
58950;SDS011;44730;53.158;6.398;2023-04-03T06:01:16;6.18;;;2.90;;
58950;SDS011;44730;53.158;6.398;2023-04-03T06:03:42;6.90;;;3.10;;
58950;SDS011;44730;53.158;6.398;2023-04-03T06:06:11;5.93;;;2.75;;
58950;SDS011;44730;53.158;6.398;2023-04-03T06:08:39;5.50;;;2.78;;
58950;SDS011;44730;53.158;6.398;2023-04-03T06:11:05;7.00;;;2.80;;
58950;SDS011;44730;53.158;6.398;2023-04-03T06:13:30;5.15;;;3.13;;
58950;SDS011;44730;53.158;6.398;2023-04-03T06:15:56;4.78;;;2.80;;
58950;SDS011;44730;53.158;6.398;2023-04-03T06:18:22;4.38;;;2.58;;
58950;SDS011;44730;53.158;6.398;2023-04-03T06:20:48;7.03;;;3.28;;
58950;SDS011;44730;53.158;6.398;2023-04-03T06:23:14;4.75;;;2.63;;
58950;SDS011;44730;53.158;6.398;2023-04-03T06:25:39;7.78;;;3.10;;
58950;SDS011;44730;53.158;6.398;2023-04-03T06:28:05;7.13;;;3.25;;
58950;SDS011;44730;53.158;6.398;2023-04-03T06:30:34;7.32;;;3.40;;
58950;SDS011;44730;53.158;6.398;2023-04-03T06:33:00;7.43;;;3.15;;
58950;SDS011;44730;53.158;6.398;2023-04-03T06:35:26;5.00;;;2.63;;
58950;SDS011;44730;53.158;6.398;2023-04-03T06:37:53;7.30;;;2.85;;
58950;SDS011;44730;53.158;6.398;2023-04-03T06:40:20;6.10;;;2.60;;
58950;SDS011;44730;53.158;6.398;2023-04-03T06:42:48;7.20;;;2.67;;
58950;SDS011;44730;53.158;6.398;2023-04-03T06:45:15;4.75;;;2.63;;
58950;SDS011;44730;53.158;6.398;2023-04-03T06:47:42;6.88;;;2.97;;
58950;SDS011;44730;53.158;6.398;2023-04-03T06:50:09;6.03;;;2.67;;
58950;SDS011;44730;53.158;6.398;2023-04-03T06:52:36;4.97;;;2.35;;
58950;SDS011;44730;53.158;6.398;2023-04-03T06:55:04;5.10;;;2.65;;
58950;SDS011;44730;53.158;6.398;2023-04-03T06:57:30;4.88;;;2.22;;
58950;SDS011;44730;53.158;6.398;2023-04-03T06:59:56;5.28;;;2.20;;
58950;SDS011;44730;53.158;6.398;2023-04-03T07:02:22;5.28;;;2.17;;
58950;SDS011;44730;53.158;6.398;2023-04-03T07:04:48;5.45;;;2.53;;
58950;SDS011;44730;53.158;6.398;2023-04-03T07:07:13;6.35;;;2.38;;
58950;SDS011;44730;53.158;6.398;2023-04-03T07:09:40;7.10;;;3.28;;
58950;SDS011;44730;53.158;6.398;2023-04-03T07:12:07;5.22;;;2.55;;
58950;SDS011;44730;53.158;6.398;2023-04-03T07:14:32;3.13;;;2.08;;
58950;SDS011;44730;53.158;6.398;2023-04-03T07:16:58;3.00;;;2.10;;
58950;SDS011;44730;53.158;6.398;2023-04-03T07:19:24;4.30;;;2.45;;
58950;SDS011;44730;53.158;6.398;2023-04-03T07:21:53;4.70;;;2.45;;
58950;SDS011;44730;53.158;6.398;2023-04-03T07:24:19;4.82;;;2.28;;
58950;SDS011;44730;53.158;6.398;2023-04-03T07:26:50;6.25;;;2.33;;
58950;SDS011;44730;53.158;6.398;2023-04-03T07:29:16;4.22;;;2.00;;
58950;SDS011;44730;53.158;6.398;2023-04-03T07:31:42;4.80;;;2.40;;
58950;SDS011;44730;53.158;6.398;2023-04-03T07:34:09;3.83;;;1.80;;
58950;SDS011;44730;53.158;6.398;2023-04-03T07:36:36;6.30;;;2.50;;
58950;SDS011;44730;53.158;6.398;2023-04-03T07:39:02;3.45;;;1.88;;
58950;SDS011;44730;53.158;6.398;2023-04-03T07:41:28;4.72;;;2.00;;
58950;SDS011;44730;53.158;6.398;2023-04-03T07:43:55;2.60;;;2.00;;
58950;SDS011;44730;53.158;6.398;2023-04-03T07:46:22;4.07;;;1.40;;
58950;SDS011;44730;53.158;6.398;2023-04-03T07:48:48;3.22;;;1.88;;
58950;SDS011;44730;53.158;6.398;2023-04-03T07:51:14;4.15;;;1.83;;
58950;SDS011;44730;53.158;6.398;2023-04-03T07:53:40;3.25;;;1.75;;
58950;SDS011;44730;53.158;6.398;2023-04-03T07:56:06;2.67;;;1.60;;
58950;SDS011;44730;53.158;6.398;2023-04-03T07:58:32;2.75;;;1.60;;
58950;SDS011;44730;53.158;6.398;2023-04-03T08:00:58;2.78;;;1.63;;
58950;SDS011;44730;53.158;6.398;2023-04-03T08:03:24;3.72;;;2.10;;
58950;SDS011;44730;53.158;6.398;2023-04-03T08:05:50;6.00;;;2.10;;
58950;SDS011;44730;53.158;6.398;2023-04-03T08:08:17;3.95;;;1.67;;
58950;SDS011;44730;53.158;6.398;2023-04-03T08:10:49;2.42;;;1.52;;
58950;SDS011;44730;53.158;6.398;2023-04-03T08:13:16;6.55;;;1.90;;
58950;SDS011;44730;53.158;6.398;2023-04-03T08:15:42;2.90;;;1.52;;
58950;SDS011;44730;53.158;6.398;2023-04-03T08:18:08;2.55;;;1.73;;
58950;SDS011;44730;53.158;6.398;2023-04-03T08:20:34;3.78;;;2.00;;
58950;SDS011;44730;53.158;6.398;2023-04-03T08:23:00;3.58;;;1.88;;
58950;SDS011;44730;53.158;6.398;2023-04-03T08:25:25;2.45;;;1.63;;
58950;SDS011;44730;53.158;6.398;2023-04-03T08:27:51;3.25;;;1.90;;
58950;SDS011;44730;53.158;6.398;2023-04-03T08:30:17;3.00;;;1.88;;
58950;SDS011;44730;53.158;6.398;2023-04-03T08:32:44;3.35;;;1.90;;
58950;SDS011;44730;53.158;6.398;2023-04-03T08:35:10;3.95;;;1.67;;
58950;SDS011;44730;53.158;6.398;2023-04-03T08:37:37;2.83;;;1.63;;
58950;SDS011;44730;53.158;6.398;2023-04-03T08:40:04;6.50;;;1.80;;
58950;SDS011;44730;53.158;6.398;2023-04-03T08:45:37;2.92;;;1.63;;
58950;SDS011;44730;53.158;6.398;2023-04-03T08:48:20;3.42;;;1.52;;
58950;SDS011;44730;53.158;6.398;2023-04-03T08:50:59;1.88;;;1.30;;
58950;SDS011;44730;53.158;6.398;2023-04-03T08:53:32;3.08;;;1.70;;
58950;SDS011;44730;53.158;6.398;2023-04-03T08:56:05;2.83;;;1.60;;
58950;SDS011;44730;53.158;6.398;2023-04-03T08:58:56;3.10;;;1.52;;
58950;SDS011;44730;53.158;6.398;2023-04-03T09:01:34;6.10;;;1.95;;
58950;SDS011;44730;53.158;6.398;2023-04-03T09:04:05;2.65;;;1.50;;
58950;SDS011;44730;53.158;6.398;2023-04-03T09:06:39;2.65;;;1.30;;
58950;SDS011;44730;53.158;6.398;2023-04-03T09:12:06;2.38;;;1.40;;
58950;SDS011;44730;53.158;6.398;2023-04-03T09:23:22;2.33;;;1.25;;
58950;SDS011;44730;53.158;6.398;2023-04-03T09:26:10;2.70;;;1.52;;
58950;SDS011;44730;53.158;6.398;2023-04-03T09:28:44;2.10;;;1.60;;
58950;SDS011;44730;53.158;6.398;2023-04-03T09:31:35;3.33;;;1.60;;
58950;SDS011;44730;53.158;6.398;2023-04-03T09:34:20;2.60;;;1.60;;
58950;SDS011;44730;53.158;6.398;2023-04-03T09:37:06;2.67;;;1.50;;
58950;SDS011;44730;53.158;6.398;2023-04-03T09:39:54;3.13;;;1.50;;
58950;SDS011;44730;53.158;6.398;2023-04-03T09:42:24;2.03;;;1.27;;
58950;SDS011;44730;53.158;6.398;2023-04-03T09:44:55;2.58;;;1.85;;
58950;SDS011;44730;53.158;6.398;2023-04-03T09:49:48;3.05;;;1.48;;
58950;SDS011;44730;53.158;6.398;2023-04-03T09:52:23;1.50;;;1.40;;
58950;SDS011;44730;53.158;6.398;2023-04-03T09:54:51;1.40;;;1.30;;
58950;SDS011;44730;53.158;6.398;2023-04-03T09:57:17;3.85;;;1.60;;
58950;SDS011;44730;53.158;6.398;2023-04-03T09:59:57;4.35;;;1.58;;
58950;SDS011;44730;53.158;6.398;2023-04-03T10:02:30;2.58;;;1.50;;
58950;SDS011;44730;53.158;6.398;2023-04-03T10:05:00;1.73;;;1.48;;
58950;SDS011;44730;53.158;6.398;2023-04-03T10:07:27;3.58;;;1.60;;
58950;SDS011;44730;53.158;6.398;2023-04-03T10:10:00;3.78;;;1.85;;
58950;SDS011;44730;53.158;6.398;2023-04-03T10:12:48;2.53;;;1.30;;
58950;SDS011;44730;53.158;6.398;2023-04-03T10:15:28;1.58;;;1.30;;
58950;SDS011;44730;53.158;6.398;2023-04-03T10:18:05;3.40;;;1.60;;
58950;SDS011;44730;53.158;6.398;2023-04-03T10:20:54;2.30;;;1.35;;
58950;SDS011;44730;53.158;6.398;2023-04-03T10:23:41;1.88;;;1.50;;
58950;SDS011;44730;53.158;6.398;2023-04-03T10:42:50;1.48;;;1.23;;
58950;SDS011;44730;53.158;6.398;2023-04-03T10:56:13;1.40;;;1.30;;
58950;SDS011;44730;53.158;6.398;2023-04-03T10:58:56;2.88;;;1.23;;
58950;SDS011;44730;53.158;6.398;2023-04-03T11:01:55;2.60;;;1.60;;
58950;SDS011;44730;53.158;6.398;2023-04-03T11:04:24;1.17;;;1.08;;
58950;SDS011;44730;53.158;6.398;2023-04-03T11:09:37;1.35;;;1.20;;
58950;SDS011;44730;53.158;6.398;2023-04-03T11:12:12;2.28;;;1.38;;
58950;SDS011;44730;53.158;6.398;2023-04-03T11:14:42;2.67;;;1.15;;
58950;SDS011;44730;53.158;6.398;2023-04-03T11:17:15;1.45;;;1.30;;
58950;SDS011;44730;53.158;6.398;2023-04-03T11:19:47;2.83;;;1.20;;
58950;SDS011;44730;53.158;6.398;2023-04-03T11:22:27;2.92;;;1.17;;
58950;SDS011;44730;53.158;6.398;2023-04-03T11:30:18;1.25;;;1.15;;
58950;SDS011;44730;53.158;6.398;2023-04-03T11:33:03;1.20;;;1.10;;
58950;SDS011;44730;53.158;6.398;2023-04-03T11:35:31;1.13;;;1.00;;
58950;SDS011;44730;53.158;6.398;2023-04-03T11:37:58;1.65;;;1.10;;
58950;SDS011;44730;53.158;6.398;2023-04-03T11:50:41;2.95;;;1.20;;
58950;SDS011;44730;53.158;6.398;2023-04-03T11:58:25;0.95;;;0.93;;
58950;SDS011;44730;53.158;6.398;2023-04-03T12:16:23;3.38;;;1.30;;
58950;SDS011;44730;53.158;6.398;2023-04-03T12:26:32;1.95;;;1.30;;
58950;SDS011;44730;53.158;6.398;2023-04-03T12:29:01;2.33;;;1.30;;
58950;SDS011;44730;53.158;6.398;2023-04-03T12:31:45;1.88;;;1.20;;
58950;SDS011;44730;53.158;6.398;2023-04-03T12:37:21;1.52;;;1.27;;
58950;SDS011;44730;53.158;6.398;2023-04-03T12:39:56;2.33;;;1.23;;
58950;SDS011;44730;53.158;6.398;2023-04-03T12:48:33;1.58;;;1.30;;
58950;SDS011;44730;53.158;6.398;2023-04-03T12:51:03;2.10;;;1.40;;
58950;SDS011;44730;53.158;6.398;2023-04-03T12:53:34;1.38;;;1.20;;
58950;SDS011;44730;53.158;6.398;2023-04-03T12:56:20;2.53;;;1.20;;
58950;SDS011;44730;53.158;6.398;2023-04-03T12:58:49;2.40;;;1.40;;
58950;SDS011;44730;53.158;6.398;2023-04-03T13:01:17;2.45;;;1.45;;
58950;SDS011;44730;53.158;6.398;2023-04-03T13:03:53;2.65;;;1.20;;
58950;SDS011;44730;53.158;6.398;2023-04-03T13:06:23;3.17;;;1.35;;
58950;SDS011;44730;53.158;6.398;2023-04-03T13:08:56;3.88;;;1.50;;
58950;SDS011;44730;53.158;6.398;2023-04-03T13:11:30;2.70;;;1.50;;
58950;SDS011;44730;53.158;6.398;2023-04-03T13:14:12;2.60;;;0.98;;
58950;SDS011;44730;53.158;6.398;2023-04-03T13:16:41;1.30;;;1.20;;
58950;SDS011;44730;53.158;6.398;2023-04-03T13:19:14;1.60;;;1.40;;
58950;SDS011;44730;53.158;6.398;2023-04-03T13:21:42;1.35;;;1.00;;
58950;SDS011;44730;53.158;6.398;2023-04-03T13:24:09;1.60;;;1.33;;
58950;SDS011;44730;53.158;6.398;2023-04-03T13:26:36;1.45;;;1.30;;
58950;SDS011;44730;53.158;6.398;2023-04-03T13:29:04;1.20;;;1.10;;
58950;SDS011;44730;53.158;6.398;2023-04-03T13:31:43;1.90;;;1.40;;
58950;SDS011;44730;53.158;6.398;2023-04-03T13:36:40;1.92;;;1.10;;
58950;SDS011;44730;53.158;6.398;2023-04-03T13:41:43;1.30;;;1.10;;
58950;SDS011;44730;53.158;6.398;2023-04-03T13:44:22;2.20;;;1.25;;
58950;SDS011;44730;53.158;6.398;2023-04-03T13:46:54;1.50;;;1.38;;
58950;SDS011;44730;53.158;6.398;2023-04-03T13:51:53;2.55;;;1.42;;
58950;SDS011;44730;53.158;6.398;2023-04-03T13:54:21;2.80;;;1.50;;
58950;SDS011;44730;53.158;6.398;2023-04-03T13:56:55;1.60;;;1.40;;
58950;SDS011;44730;53.158;6.398;2023-04-03T13:59:25;1.45;;;1.10;;
58950;SDS011;44730;53.158;6.398;2023-04-03T14:04:29;2.60;;;1.50;;
58950;SDS011;44730;53.158;6.398;2023-04-03T14:06:57;1.83;;;1.13;;
58950;SDS011;44730;53.158;6.398;2023-04-03T14:09:24;2.05;;;1.30;;
58950;SDS011;44730;53.158;6.398;2023-04-03T14:11:52;1.75;;;1.20;;
58950;SDS011;44730;53.158;6.398;2023-04-03T14:14:23;1.25;;;0.98;;
58950;SDS011;44730;53.158;6.398;2023-04-03T14:16:56;2.20;;;1.17;;
58950;SDS011;44730;53.158;6.398;2023-04-03T14:19:29;1.20;;;1.10;;
58950;SDS011;44730;53.158;6.398;2023-04-03T14:21:58;3.53;;;1.17;;
58950;SDS011;44730;53.158;6.398;2023-04-03T14:24:24;1.85;;;1.10;;
58950;SDS011;44730;53.158;6.398;2023-04-03T14:26:51;1.85;;;1.40;;
58950;SDS011;44730;53.158;6.398;2023-04-03T14:29:18;1.73;;;1.40;;
58950;SDS011;44730;53.158;6.398;2023-04-03T14:31:46;3.30;;;1.42;;
58950;SDS011;44730;53.158;6.398;2023-04-03T14:34:13;3.65;;;1.50;;
58950;SDS011;44730;53.158;6.398;2023-04-03T14:36:40;1.65;;;1.40;;
58950;SDS011;44730;53.158;6.398;2023-04-03T14:39:11;2.53;;;1.40;;
58950;SDS011;44730;53.158;6.398;2023-04-03T14:41:42;1.90;;;1.35;;
58950;SDS011;44730;53.158;6.398;2023-04-03T14:44:08;2.00;;;1.35;;
58950;SDS011;44730;53.158;6.398;2023-04-03T14:46:35;2.63;;;1.40;;
58950;SDS011;44730;53.158;6.398;2023-04-03T14:49:03;3.13;;;1.30;;
58950;SDS011;44730;53.158;6.398;2023-04-03T14:51:40;2.45;;;1.40;;
58950;SDS011;44730;53.158;6.398;2023-04-03T14:54:05;3.53;;;1.77;;
58950;SDS011;44730;53.158;6.398;2023-04-03T14:56:44;2.05;;;1.38;;
58950;SDS011;44730;53.158;6.398;2023-04-03T14:59:11;1.50;;;1.40;;
58950;SDS011;44730;53.158;6.398;2023-04-03T15:01:38;2.88;;;1.42;;
58950;SDS011;44730;53.158;6.398;2023-04-03T15:04:14;1.95;;;1.35;;
58950;SDS011;44730;53.158;6.398;2023-04-03T15:06:42;2.88;;;1.60;;
58950;SDS011;44730;53.158;6.398;2023-04-03T15:09:24;1.85;;;1.42;;
58950;SDS011;44730;53.158;6.398;2023-04-03T15:11:52;2.67;;;1.63;;
58950;SDS011;44730;53.158;6.398;2023-04-03T15:14:20;3.25;;;1.60;;
58950;SDS011;44730;53.158;6.398;2023-04-03T15:16:46;2.80;;;1.50;;
58950;SDS011;44730;53.158;6.398;2023-04-03T15:19:12;2.20;;;1.50;;
58950;SDS011;44730;53.158;6.398;2023-04-03T15:21:38;1.40;;;1.30;;
58950;SDS011;44730;53.158;6.398;2023-04-03T15:24:04;2.05;;;1.50;;
58950;SDS011;44730;53.158;6.398;2023-04-03T15:26:30;2.38;;;1.67;;
58950;SDS011;44730;53.158;6.398;2023-04-03T15:28:57;3.30;;;1.40;;
58950;SDS011;44730;53.158;6.398;2023-04-03T15:31:22;3.05;;;1.42;;
58950;SDS011;44730;53.158;6.398;2023-04-03T15:33:48;2.10;;;1.20;;
58950;SDS011;44730;53.158;6.398;2023-04-03T15:36:14;3.80;;;1.30;;
58950;SDS011;44730;53.158;6.398;2023-04-03T15:38:39;1.88;;;1.30;;
58950;SDS011;44730;53.158;6.398;2023-04-03T15:41:05;2.50;;;1.30;;
58950;SDS011;44730;53.158;6.398;2023-04-03T15:43:31;2.40;;;1.23;;
58950;SDS011;44730;53.158;6.398;2023-04-03T15:45:59;1.92;;;1.38;;
58950;SDS011;44730;53.158;6.398;2023-04-03T15:48:26;3.85;;;1.75;;
58950;SDS011;44730;53.158;6.398;2023-04-03T15:50:53;2.20;;;1.40;;
58950;SDS011;44730;53.158;6.398;2023-04-03T15:53:19;2.53;;;1.20;;
58950;SDS011;44730;53.158;6.398;2023-04-03T15:55:45;3.38;;;1.48;;
58950;SDS011;44730;53.158;6.398;2023-04-03T15:58:11;1.73;;;1.38;;
58950;SDS011;44730;53.158;6.398;2023-04-03T16:00:37;1.88;;;1.70;;
58950;SDS011;44730;53.158;6.398;2023-04-03T16:03:10;2.67;;;1.40;;
58950;SDS011;44730;53.158;6.398;2023-04-03T16:05:39;3.78;;;1.60;;
58950;SDS011;44730;53.158;6.398;2023-04-03T16:08:05;1.50;;;1.23;;
58950;SDS011;44730;53.158;6.398;2023-04-03T16:10:37;3.30;;;1.90;;
58950;SDS011;44730;53.158;6.398;2023-04-03T16:13:04;1.20;;;1.10;;
58950;SDS011;44730;53.158;6.398;2023-04-03T16:15:30;1.80;;;1.23;;
58950;SDS011;44730;53.158;6.398;2023-04-03T16:17:58;3.00;;;1.20;;
58950;SDS011;44730;53.158;6.398;2023-04-03T16:20:25;2.83;;;1.23;;
58950;SDS011;44730;53.158;6.398;2023-04-03T16:22:51;1.92;;;1.13;;
58950;SDS011;44730;53.158;6.398;2023-04-03T16:25:17;3.45;;;1.30;;
58950;SDS011;44730;53.158;6.398;2023-04-03T16:27:43;2.65;;;1.35;;
58950;SDS011;44730;53.158;6.398;2023-04-03T16:30:09;4.10;;;1.45;;
58950;SDS011;44730;53.158;6.398;2023-04-03T16:32:35;4.97;;;1.20;;
58950;SDS011;44730;53.158;6.398;2023-04-03T16:35:03;1.88;;;1.20;;
58950;SDS011;44730;53.158;6.398;2023-04-03T16:37:30;3.08;;;1.10;;
58950;SDS011;44730;53.158;6.398;2023-04-03T16:39:55;1.95;;;1.17;;
58950;SDS011;44730;53.158;6.398;2023-04-03T16:42:23;2.08;;;1.20;;
58950;SDS011;44730;53.158;6.398;2023-04-03T16:44:50;1.33;;;1.23;;
58950;SDS011;44730;53.158;6.398;2023-04-03T16:47:15;2.00;;;1.25;;
58950;SDS011;44730;53.158;6.398;2023-04-03T16:49:44;2.88;;;1.00;;
58950;SDS011;44730;53.158;6.398;2023-04-03T16:52:10;3.33;;;1.30;;
58950;SDS011;44730;53.158;6.398;2023-04-03T16:54:36;1.55;;;1.13;;
58950;SDS011;44730;53.158;6.398;2023-04-03T16:57:02;3.63;;;1.23;;
58950;SDS011;44730;53.158;6.398;2023-04-03T16:59:29;2.45;;;1.20;;